createdAt,value
2023-04-02T00:03:42.795Z,4.15
2023-04-02T00:09:15.296Z,4.11
2023-04-02T00:14:36.553Z,4.06
2023-04-02T00:20:06.352Z,4.01
2023-04-02T00:25:28.917Z,3.95
2023-04-02T00:30:52.692Z,3.85
2023-04-02T00:36:13.601Z,3.80
2023-04-02T00:41:38.624Z,3.74
2023-04-02T00:47:35.028Z,3.63
2023-04-02T00:52:58.262Z,3.57
2023-04-02T00:58:32.936Z,3.54
2023-04-02T01:04:02.442Z,3.51
2023-04-02T01:09:53.290Z,3.49
2023-04-02T01:15:22.525Z,3.48
2023-04-02T01:20:52.313Z,3.54
2023-04-02T01:26:12.853Z,3.57
2023-04-02T01:31:34.858Z,3.59
2023-04-02T01:37:23.325Z,3.61
2023-04-02T01:42:56.252Z,3.68
2023-04-02T01:48:19.923Z,3.79
2023-04-02T01:53:40.793Z,3.81
2023-04-02T01:59:05.731Z,3.73
2023-04-02T02:04:29.450Z,3.73
2023-04-02T02:09:51.046Z,3.73
2023-04-02T02:15:17.860Z,3.70
2023-04-02T02:20:39.704Z,3.71
2023-04-02T02:26:00.550Z,3.73
2023-04-02T02:31:27.918Z,3.81
2023-04-02T02:37:04.515Z,3.87
2023-04-02T02:42:41.126Z,3.90
2023-04-02T02:48:11.956Z,3.90
2023-04-02T02:53:33.474Z,3.90
2023-04-02T03:06:57.510Z,3.97
2023-04-02T03:12:51.361Z,3.97
2023-04-02T03:18:18.011Z,3.98
2023-04-02T03:23:45.871Z,3.98
2023-04-02T03:29:16.387Z,3.98
2023-04-02T03:34:44.078Z,3.90
2023-04-02T03:40:10.414Z,3.88
2023-04-02T03:45:42.167Z,3.84
2023-04-02T03:51:13.319Z,3.82
2023-04-02T03:56:40.368Z,3.81
2023-04-02T04:02:40.565Z,3.77
2023-04-02T04:08:18.770Z,3.71
2023-04-02T04:14:03.255Z,3.68
2023-04-02T04:19:45.399Z,3.63
2023-04-02T04:25:21.022Z,3.65
2023-04-02T04:31:06.827Z,3.61
2023-04-02T04:36:34.854Z,3.58
2023-04-02T04:42:05.054Z,3.54
2023-04-02T04:47:34.235Z,3.51
2023-04-02T04:52:55.357Z,3.49
2023-04-02T04:58:27.075Z,3.47
2023-04-02T05:03:55.089Z,3.46
2023-04-02T05:09:25.222Z,3.40
2023-04-02T05:15:01.429Z,3.46
2023-04-02T05:20:36.228Z,3.49
2023-04-02T05:26:02.727Z,3.50
2023-04-02T05:31:45.049Z,3.53
2023-04-02T05:37:17.862Z,3.57
2023-04-02T05:42:40.498Z,3.62
2023-04-02T05:48:21.349Z,3.67
2023-04-02T05:53:49.568Z,3.76
2023-04-02T05:59:24.498Z,3.78
2023-04-02T06:04:56.586Z,3.82
2023-04-02T06:10:28.904Z,3.88
2023-04-02T06:15:50.036Z,3.97
2023-04-02T06:21:17.770Z,4.09
2023-04-02T06:26:50.951Z,4.24
2023-04-02T06:32:13.137Z,4.36
2023-04-02T06:37:41.701Z,4.41
2023-04-02T06:43:33.535Z,4.51
2023-04-02T06:49:29.458Z,4.63
2023-04-02T06:54:54.516Z,4.79
2023-04-02T07:00:26.363Z,4.96
2023-04-02T07:05:47.631Z,5.16
2023-04-02T07:11:14.931Z,5.37
2023-04-02T07:16:36.785Z,5.55
2023-04-02T07:21:57.570Z,5.67
2023-04-02T07:27:22.690Z,5.92
2023-04-02T07:32:43.933Z,6.16
2023-04-02T07:38:04.426Z,6.35
2023-04-02T07:43:25.046Z,6.59
2023-04-02T07:48:46.940Z,6.76
2023-04-02T07:54:10.128Z,6.92
2023-04-02T07:59:30.999Z,6.93
2023-04-02T08:04:51.740Z,6.92
2023-04-02T08:10:12.804Z,7.08
2023-04-02T08:15:33.451Z,7.33
2023-04-02T08:20:54.352Z,7.40
2023-04-02T08:26:18.450Z,7.44
2023-04-02T08:31:39.062Z,7.57
2023-04-02T08:36:59.649Z,7.63
2023-04-02T08:42:35.210Z,7.91
2023-04-02T08:47:59.144Z,8.13
2023-04-02T08:53:25.014Z,8.27
2023-04-02T08:58:59.037Z,8.22
2023-04-02T09:04:25.332Z,8.28
2023-04-02T09:09:50.185Z,8.66
2023-04-02T09:15:11.083Z,8.79
2023-04-02T09:20:31.671Z,9.03
2023-04-02T09:26:03.506Z,9.13
2023-04-02T09:31:34.493Z,9.18
2023-04-02T09:36:56.727Z,9.52
2023-04-02T09:42:34.300Z,9.73
2023-04-02T09:47:55.822Z,10.21
2023-04-02T09:53:30.730Z,10.16
2023-04-02T09:59:13.108Z,10.48
2023-04-02T10:04:38.685Z,10.27
2023-04-02T10:10:01.281Z,10.53
2023-04-02T10:15:30.766Z,10.77
2023-04-02T10:20:53.822Z,11.30
2023-04-02T10:26:47.436Z,11.62
2023-04-02T10:32:13.736Z,11.84
2023-04-02T10:37:49.145Z,11.95
2023-04-02T10:43:31.958Z,12.33
2023-04-02T10:49:17.288Z,14.42
2023-04-02T10:54:52.921Z,23.87
2023-04-02T11:00:16.785Z,30.63
2023-04-02T11:05:59.751Z,33.91
2023-04-02T11:11:27.558Z,36.13
2023-04-02T11:16:50.045Z,37.36
2023-04-02T11:22:22.986Z,40.52
2023-04-02T11:27:43.998Z,42.46
2023-04-02T11:33:34.103Z,45.33
2023-04-02T11:39:01.895Z,47.28
2023-04-02T11:44:31.804Z,47.89
2023-04-02T11:49:55.180Z,48.81
2023-04-02T11:55:27.358Z,49.07
2023-04-02T12:01:11.831Z,49.29
2023-04-02T12:06:47.538Z,49.02
2023-04-02T12:12:23.268Z,50.55
2023-04-02T12:17:44.904Z,51.66
2023-04-02T12:23:05.703Z,53.55
2023-04-02T12:28:33.908Z,53.49
2023-04-02T12:33:54.423Z,51.13
2023-04-02T12:39:17.716Z,50.44
2023-04-02T12:44:38.232Z,50.76
2023-04-02T12:50:00.738Z,49.41
2023-04-02T12:55:25.422Z,48.10
2023-04-02T13:00:46.314Z,45.37
2023-04-02T13:06:24.463Z,43.03
2023-04-02T13:11:45.329Z,42.75
2023-04-02T13:17:36.769Z,45.26
2023-04-02T13:23:03.406Z,47.01
2023-04-02T13:28:24.065Z,48.36
2023-04-02T13:33:44.602Z,49.07
2023-04-02T13:39:05.653Z,47.16
2023-04-02T13:44:33.735Z,44.97
2023-04-02T13:49:54.326Z,44.76
2023-04-02T13:55:15.835Z,39.06
2023-04-02T14:00:37.849Z,41.93
2023-04-02T14:06:04.604Z,46.46
2023-04-02T14:11:46.689Z,48.29
2023-04-02T14:17:26.192Z,49.91
2023-04-02T14:23:01.988Z,50.76
2023-04-02T14:28:39.100Z,50.90
2023-04-02T14:34:13.149Z,51.17
2023-04-02T14:40:01.511Z,50.93
2023-04-02T14:45:51.727Z,50.29
2023-04-02T14:51:30.974Z,49.92
2023-04-02T14:56:56.608Z,47.81
2023-04-02T15:02:27.730Z,47.84
2023-04-02T15:08:02.048Z,47.11
2023-04-02T15:13:50.624Z,45.61
2023-04-02T15:19:14.922Z,42.28
2023-04-02T15:24:59.611Z,37.34
2023-04-02T15:30:24.850Z,32.23
2023-04-02T15:35:57.193Z,30.23
2023-04-02T15:41:26.249Z,28.10
2023-04-02T15:47:08.418Z,27.01
2023-04-02T15:52:45.437Z,25.36
2023-04-02T15:58:21.920Z,22.44
2023-04-02T16:04:11.995Z,19.83
2023-04-02T16:09:52.675Z,18.36
2023-04-02T16:15:28.582Z,18.56
2023-04-02T16:20:52.715Z,18.40
2023-04-02T16:26:33.243Z,17.73
2023-04-02T16:32:16.817Z,17.12
2023-04-02T16:37:44.931Z,16.53
2023-04-02T16:43:27.284Z,16.12
2023-04-02T16:48:57.838Z,15.83
2023-04-02T16:54:46.750Z,15.59
2023-04-02T17:00:21.913Z,15.30
2023-04-02T17:06:04.800Z,15.04
2023-04-02T17:11:32.536Z,14.71
2023-04-02T17:16:58.380Z,14.39
2023-04-02T17:22:21.816Z,14.09
2023-04-02T17:27:47.272Z,13.77
2023-04-02T17:33:18.915Z,13.39
2023-04-02T17:38:45.559Z,12.97
2023-04-02T17:44:27.654Z,12.47
2023-04-02T17:50:20.615Z,11.66
2023-04-02T17:56:06.654Z,11.03
2023-04-02T18:01:30.014Z,10.50
2023-04-02T18:07:27.850Z,9.94
2023-04-02T18:13:02.063Z,9.37
2023-04-02T18:19:00.266Z,9.01
2023-04-02T18:24:39.027Z,8.60
2023-04-02T18:30:31.273Z,8.25
2023-04-02T18:36:05.167Z,7.95
2023-04-02T18:41:42.352Z,7.71
2023-04-02T18:47:19.869Z,7.46
2023-04-02T18:52:41.567Z,7.27
2023-04-02T18:58:10.818Z,7.05
2023-04-02T19:03:38.065Z,6.91
2023-04-02T19:09:02.633Z,6.78
2023-04-02T19:14:23.449Z,6.62
2023-04-02T19:20:14.218Z,6.39
2023-04-02T19:25:46.686Z,6.19
2023-04-02T19:31:19.087Z,6.03
2023-04-02T19:36:46.703Z,5.92
2023-04-02T19:42:13.981Z,5.81
2023-04-02T19:47:34.483Z,5.76
2023-04-02T19:52:55.426Z,5.67
2023-04-02T19:58:29.498Z,5.54
2023-04-02T20:03:49.890Z,5.38
2023-04-02T20:09:10.575Z,5.31
2023-04-02T20:14:31.033Z,5.17
2023-04-02T20:19:51.835Z,5.11
2023-04-02T20:25:14.326Z,5.04
2023-04-02T20:30:35.481Z,4.95
2023-04-02T20:36:01.980Z,4.91
2023-04-02T20:41:23.068Z,4.83
2023-04-02T20:46:43.564Z,4.77
2023-04-02T20:52:04.511Z,4.72
2023-04-02T20:57:26.195Z,4.69
2023-04-02T21:02:46.766Z,4.63
2023-04-02T21:08:07.845Z,4.55
2023-04-02T21:13:30.699Z,4.53
2023-04-02T21:18:52.903Z,4.48
2023-04-02T21:24:13.665Z,4.46
2023-04-02T21:29:34.114Z,4.41
2023-04-02T21:34:55.264Z,4.35
2023-04-02T21:40:15.925Z,4.29
2023-04-02T21:45:36.976Z,4.23
2023-04-02T21:51:14.626Z,4.18
2023-04-02T21:56:37.924Z,4.05
2023-04-02T22:01:58.436Z,3.98
2023-04-02T22:07:19.158Z,3.91
2023-04-02T22:12:41.101Z,3.88
2023-04-02T22:18:01.998Z,3.81
2023-04-02T22:23:25.560Z,3.77
2023-04-02T22:28:46.681Z,3.73
2023-04-02T22:34:07.611Z,3.68
2023-04-02T22:39:28.672Z,3.65
2023-04-02T22:44:49.777Z,3.61
2023-04-02T22:50:10.698Z,3.58
2023-04-02T22:55:31.340Z,3.55
2023-04-02T23:00:52.243Z,3.53
2023-04-02T23:06:15.582Z,3.49
2023-04-02T23:11:36.269Z,3.46
2023-04-02T23:16:56.870Z,3.41
2023-04-02T23:22:17.183Z,3.38
2023-04-02T23:27:37.779Z,3.35
2023-04-02T23:32:58.295Z,3.32
2023-04-02T23:38:18.826Z,3.26
2023-04-02T23:43:40.477Z,3.24
2023-04-02T23:49:02.729Z,3.21
2023-04-02T23:54:23.526Z,3.17
2023-04-02T23:59:44.014Z,3.10
